sensor_id;sensor_type;location;lat;lon;timestamp;pressure;altitude;pressure_sealevel;temperature
70123;BMP280;57489;37.404;24.920;2023-05-01T00:04:36;100251.69;;;20.57
70123;BMP280;57489;37.404;24.920;2023-05-01T00:09:37;100252.03;;;20.47
70123;BMP280;57489;37.404;24.920;2023-05-01T00:14:37;100247.91;;;20.58
70123;BMP280;57489;37.404;24.920;2023-05-01T00:19:37;100244.81;;;20.56
70123;BMP280;57489;37.404;24.920;2023-05-01T00:24:38;100245.88;;;20.55
70123;BMP280;57489;37.404;24.920;2023-05-01T00:29:38;100248.53;;;20.55
70123;BMP280;57489;37.404;24.920;2023-05-01T00:34:39;100246.84;;;20.51
70123;BMP280;57489;37.404;24.920;2023-05-01T00:39:39;100249.81;;;20.58
70123;BMP280;57489;37.404;24.920;2023-05-01T00:44:40;100239.19;;;20.49
70123;BMP280;57489;37.404;24.920;2023-05-01T00:49:41;100241.22;;;20.52
70123;BMP280;57489;37.404;24.920;2023-05-01T00:54:44;100229.16;;;20.46
70123;BMP280;57489;37.404;24.920;2023-05-01T00:59:44;100228.88;;;20.39
70123;BMP280;57489;37.404;24.920;2023-05-01T01:04:45;100233.56;;;20.42
70123;BMP280;57489;37.404;24.920;2023-05-01T01:10:12;100233.56;;;20.42
70123;BMP280;57489;37.404;24.920;2023-05-01T01:25:48;100236.88;;;20.39
70123;BMP280;57489;37.404;24.920;2023-05-01T01:31:13;100236.88;;;20.39
70123;BMP280;57489;37.404;24.920;2023-05-01T01:36:19;100220.44;;;20.37
70123;BMP280;57489;37.404;24.920;2023-05-01T01:41:41;100217.94;;;20.32
70123;BMP280;57489;37.404;24.920;2023-05-01T01:46:42;100226.41;;;20.34
70123;BMP280;57489;37.404;24.920;2023-05-01T01:51:44;100218.22;;;20.39
70123;BMP280;57489;37.404;24.920;2023-05-01T01:56:47;100216.34;;;20.31
70123;BMP280;57489;37.404;24.920;2023-05-01T02:01:50;100212.63;;;20.32
70123;BMP280;57489;37.404;24.920;2023-05-01T02:06:55;100209.66;;;20.25
70123;BMP280;57489;37.404;24.920;2023-05-01T02:11:56;100210.25;;;20.30
70123;BMP280;57489;37.404;24.920;2023-05-01T02:16:58;100214.63;;;20.35
70123;BMP280;57489;37.404;24.920;2023-05-01T02:22:00;100203.50;;;20.33
70123;BMP280;57489;37.404;24.920;2023-05-01T02:27:10;100209.47;;;20.30
70123;BMP280;57489;37.404;24.920;2023-05-01T02:32:11;100213.69;;;20.31
70123;BMP280;57489;37.404;24.920;2023-05-01T02:37:12;100207.13;;;20.28
70123;BMP280;57489;37.404;24.920;2023-05-01T02:42:13;100206.81;;;20.30
70123;BMP280;57489;37.404;24.920;2023-05-01T02:47:17;100215.47;;;20.27
70123;BMP280;57489;37.404;24.920;2023-05-01T02:52:20;100220.78;;;20.27
70123;BMP280;57489;37.404;24.920;2023-05-01T02:57:21;100222.00;;;20.29
70123;BMP280;57489;37.404;24.920;2023-05-01T03:02:22;100224.53;;;20.26
70123;BMP280;57489;37.404;24.920;2023-05-01T03:07:22;100231.13;;;20.28
70123;BMP280;57489;37.404;24.920;2023-05-01T03:12:23;100229.41;;;20.24
70123;BMP280;57489;37.404;24.920;2023-05-01T03:17:23;100228.31;;;20.25
70123;BMP280;57489;37.404;24.920;2023-05-01T03:22:24;100236.13;;;20.21
70123;BMP280;57489;37.404;24.920;2023-05-01T03:27:24;100241.94;;;20.23
70123;BMP280;57489;37.404;24.920;2023-05-01T03:32:25;100241.47;;;20.21
70123;BMP280;57489;37.404;24.920;2023-05-01T03:37:25;100241.44;;;20.30
70123;BMP280;57489;37.404;24.920;2023-05-01T03:42:25;100243.47;;;20.33
70123;BMP280;57489;37.404;24.920;2023-05-01T03:47:26;100240.34;;;20.31
70123;BMP280;57489;37.404;24.920;2023-05-01T03:52:26;100247.09;;;20.37
70123;BMP280;57489;37.404;24.920;2023-05-01T03:57:27;100241.56;;;20.33
70123;BMP280;57489;37.404;24.920;2023-05-01T04:02:27;100249.28;;;20.35
70123;BMP280;57489;37.404;24.920;2023-05-01T04:07:28;100252.72;;;20.35
70123;BMP280;57489;37.404;24.920;2023-05-01T04:12:28;100263.06;;;20.37
70123;BMP280;57489;37.404;24.920;2023-05-01T04:17:29;100261.94;;;20.38
70123;BMP280;57489;37.404;24.920;2023-05-01T04:22:29;100262.31;;;20.36
70123;BMP280;57489;37.404;24.920;2023-05-01T04:27:30;100274.03;;;20.35
70123;BMP280;57489;37.404;24.920;2023-05-01T04:32:30;100283.25;;;20.38
70123;BMP280;57489;37.404;24.920;2023-05-01T04:37:31;100280.31;;;20.39
70123;BMP280;57489;37.404;24.920;2023-05-01T04:42:32;100289.06;;;20.40
70123;BMP280;57489;37.404;24.920;2023-05-01T04:47:32;100282.31;;;20.42
70123;BMP280;57489;37.404;24.920;2023-05-01T04:52:33;100283.09;;;20.43
70123;BMP280;57489;37.404;24.920;2023-05-01T04:57:34;100283.75;;;20.40
70123;BMP280;57489;37.404;24.920;2023-05-01T05:02:34;100292.19;;;20.42
70123;BMP280;57489;37.404;24.920;2023-05-01T05:07:34;100293.91;;;20.47
70123;BMP280;57489;37.404;24.920;2023-05-01T05:12:35;100301.31;;;20.41
70123;BMP280;57489;37.404;24.920;2023-05-01T05:17:35;100305.34;;;20.47
70123;BMP280;57489;37.404;24.920;2023-05-01T05:22:36;100310.69;;;20.47
70123;BMP280;57489;37.404;24.920;2023-05-01T05:27:36;100324.63;;;20.53
70123;BMP280;57489;37.404;24.920;2023-05-01T05:32:37;100322.28;;;20.51
70123;BMP280;57489;37.404;24.920;2023-05-01T05:37:37;100334.22;;;20.54
70123;BMP280;57489;37.404;24.920;2023-05-01T05:42:38;100342.63;;;20.64
70123;BMP280;57489;37.404;24.920;2023-05-01T05:47:38;100345.75;;;20.66
70123;BMP280;57489;37.404;24.920;2023-05-01T05:52:38;100344.16;;;20.74
70123;BMP280;57489;37.404;24.920;2023-05-01T05:57:39;100357.38;;;20.71
70123;BMP280;57489;37.404;24.920;2023-05-01T06:02:39;100356.53;;;20.79
70123;BMP280;57489;37.404;24.920;2023-05-01T06:07:40;100368.31;;;20.78
70123;BMP280;57489;37.404;24.920;2023-05-01T06:12:40;100381.31;;;20.79
70123;BMP280;57489;37.404;24.920;2023-05-01T06:17:43;100374.25;;;20.83
70123;BMP280;57489;37.404;24.920;2023-05-01T06:22:44;100377.50;;;20.89
70123;BMP280;57489;37.404;24.920;2023-05-01T06:27:44;100381.75;;;20.90
70123;BMP280;57489;37.404;24.920;2023-05-01T06:32:45;100392.06;;;21.00
70123;BMP280;57489;37.404;24.920;2023-05-01T06:37:45;100383.59;;;20.98
70123;BMP280;57489;37.404;24.920;2023-05-01T06:42:46;100383.09;;;21.05
70123;BMP280;57489;37.404;24.920;2023-05-01T06:47:46;100382.34;;;21.04
70123;BMP280;57489;37.404;24.920;2023-05-01T06:52:47;100389.19;;;21.05
70123;BMP280;57489;37.404;24.920;2023-05-01T06:57:47;100390.75;;;21.06
70123;BMP280;57489;37.404;24.920;2023-05-01T07:02:48;100408.34;;;21.07
70123;BMP280;57489;37.404;24.920;2023-05-01T07:07:48;100415.72;;;21.10
70123;BMP280;57489;37.404;24.920;2023-05-01T07:12:49;100412.09;;;21.06
70123;BMP280;57489;37.404;24.920;2023-05-01T07:17:49;100415.88;;;21.05
70123;BMP280;57489;37.404;24.920;2023-05-01T07:22:50;100428.13;;;21.06
70123;BMP280;57489;37.404;24.920;2023-05-01T07:27:50;100430.63;;;21.11
70123;BMP280;57489;37.404;24.920;2023-05-01T07:32:51;100433.47;;;21.06
70123;BMP280;57489;37.404;24.920;2023-05-01T07:37:51;100440.22;;;21.04
70123;BMP280;57489;37.404;24.920;2023-05-01T07:42:52;100443.34;;;21.06
70123;BMP280;57489;37.404;24.920;2023-05-01T07:47:52;100447.63;;;20.98
70123;BMP280;57489;37.404;24.920;2023-05-01T07:52:53;100453.72;;;21.07
70123;BMP280;57489;37.404;24.920;2023-05-01T07:57:53;100458.56;;;21.14
70123;BMP280;57489;37.404;24.920;2023-05-01T08:02:53;100459.63;;;21.13
70123;BMP280;57489;37.404;24.920;2023-05-01T08:07:54;100478.81;;;21.15
70123;BMP280;57489;37.404;24.920;2023-05-01T08:12:54;100470.91;;;21.18
70123;BMP280;57489;37.404;24.920;2023-05-01T08:17:55;100470.78;;;21.23
70123;BMP280;57489;37.404;24.920;2023-05-01T08:22:55;100481.56;;;21.27
70123;BMP280;57489;37.404;24.920;2023-05-01T08:27:56;100479.19;;;21.34
70123;BMP280;57489;37.404;24.920;2023-05-01T08:32:56;100492.66;;;21.38
70123;BMP280;57489;37.404;24.920;2023-05-01T08:37:57;100492.63;;;21.46
70123;BMP280;57489;37.404;24.920;2023-05-01T08:42:59;100503.66;;;21.45
70123;BMP280;57489;37.404;24.920;2023-05-01T08:48:04;100497.69;;;21.48
70123;BMP280;57489;37.404;24.920;2023-05-01T08:53:05;100501.06;;;21.57
70123;BMP280;57489;37.404;24.920;2023-05-01T08:58:08;100494.72;;;21.70
70123;BMP280;57489;37.404;24.920;2023-05-01T09:03:11;100501.06;;;21.87
70123;BMP280;57489;37.404;24.920;2023-05-01T09:08:11;100508.25;;;21.95
70123;BMP280;57489;37.404;24.920;2023-05-01T09:13:12;100500.47;;;22.02
70123;BMP280;57489;37.404;24.920;2023-05-01T09:18:12;100498.53;;;22.11
70123;BMP280;57489;37.404;24.920;2023-05-01T09:23:12;100501.66;;;22.13
70123;BMP280;57489;37.404;24.920;2023-05-01T09:28:14;100503.09;;;22.11
70123;BMP280;57489;37.404;24.920;2023-05-01T09:33:14;100504.78;;;22.15
70123;BMP280;57489;37.404;24.920;2023-05-01T09:38:23;100506.81;;;22.18
70123;BMP280;57489;37.404;24.920;2023-05-01T09:43:25;100503.53;;;22.34
70123;BMP280;57489;37.404;24.920;2023-05-01T09:48:25;100506.22;;;22.34
70123;BMP280;57489;37.404;24.920;2023-05-01T09:53:36;100500.22;;;22.37
70123;BMP280;57489;37.404;24.920;2023-05-01T09:58:37;100497.00;;;22.43
70123;BMP280;57489;37.404;24.920;2023-05-01T10:03:38;100500.28;;;22.61
70123;BMP280;57489;37.404;24.920;2023-05-01T10:08:48;100498.13;;;22.75
70123;BMP280;57489;37.404;24.920;2023-05-01T10:14:08;100496.09;;;22.72
70123;BMP280;57489;37.404;24.920;2023-05-01T10:19:10;100501.91;;;22.74
70123;BMP280;57489;37.404;24.920;2023-05-01T10:24:10;100492.97;;;22.70
70123;BMP280;57489;37.404;24.920;2023-05-01T10:29:11;100485.16;;;22.65
70123;BMP280;57489;37.404;24.920;2023-05-01T10:34:15;100486.53;;;22.83
70123;BMP280;57489;37.404;24.920;2023-05-01T10:39:33;100483.44;;;22.81
70123;BMP280;57489;37.404;24.920;2023-05-01T10:44:34;100482.53;;;22.90
70123;BMP280;57489;37.404;24.920;2023-05-01T10:55:42;100488.78;;;22.81
70123;BMP280;57489;37.404;24.920;2023-05-01T11:00:43;100503.25;;;22.80
70123;BMP280;57489;37.404;24.920;2023-05-01T11:21:39;100506.16;;;22.75
70123;BMP280;57489;37.404;24.920;2023-05-01T11:26:41;100497.88;;;22.80
70123;BMP280;57489;37.404;24.920;2023-05-01T11:31:46;100500.81;;;22.75
70123;BMP280;57489;37.404;24.920;2023-05-01T11:36:49;100503.25;;;22.80
70123;BMP280;57489;37.404;24.920;2023-05-01T11:41:50;100492.53;;;22.80
70123;BMP280;57489;37.404;24.920;2023-05-01T11:47:05;100496.13;;;22.84
70123;BMP280;57489;37.404;24.920;2023-05-01T11:52:05;100488.78;;;22.81
70123;BMP280;57489;37.404;24.920;2023-05-01T11:57:06;100482.50;;;22.77
70123;BMP280;57489;37.404;24.920;2023-05-01T12:02:18;100481.84;;;22.80
70123;BMP280;57489;37.404;24.920;2023-05-01T12:07:20;100475.84;;;22.83
70123;BMP280;57489;37.404;24.920;2023-05-01T12:12:21;100481.31;;;22.87
70123;BMP280;57489;37.404;24.920;2023-05-01T12:17:21;100477.25;;;22.81
70123;BMP280;57489;37.404;24.920;2023-05-01T12:22:22;100469.59;;;22.79
70123;BMP280;57489;37.404;24.920;2023-05-01T12:27:22;100468.94;;;22.82
70123;BMP280;57489;37.404;24.920;2023-05-01T12:32:30;100462.66;;;22.78
70123;BMP280;57489;37.404;24.920;2023-05-01T12:37:31;100465.00;;;22.80
70123;BMP280;57489;37.404;24.920;2023-05-01T12:42:31;100457.31;;;22.78
70123;BMP280;57489;37.404;24.920;2023-05-01T12:47:38;100457.41;;;22.70
70123;BMP280;57489;37.404;24.920;2023-05-01T12:52:38;100457.53;;;22.73
70123;BMP280;57489;37.404;24.920;2023-05-01T12:57:52;100456.44;;;22.74
70123;BMP280;57489;37.404;24.920;2023-05-01T13:02:53;100446.06;;;22.85
70123;BMP280;57489;37.404;24.920;2023-05-01T13:07:53;100439.94;;;22.84
70123;BMP280;57489;37.404;24.920;2023-05-01T13:12:54;100445.25;;;22.72
70123;BMP280;57489;37.404;24.920;2023-05-01T13:18:02;100449.59;;;22.65
70123;BMP280;57489;37.404;24.920;2023-05-01T13:23:09;100446.59;;;22.66
70123;BMP280;57489;37.404;24.920;2023-05-01T13:28:16;100451.25;;;22.57
70123;BMP280;57489;37.404;24.920;2023-05-01T13:33:17;100452.91;;;22.62
70123;BMP280;57489;37.404;24.920;2023-05-01T13:38:17;100458.22;;;22.82
70123;BMP280;57489;37.404;24.920;2023-05-01T13:43:18;100463.78;;;22.77
70123;BMP280;57489;37.404;24.920;2023-05-01T13:48:18;100470.34;;;22.80
70123;BMP280;57489;37.404;24.920;2023-05-01T13:53:21;100471.25;;;22.84
70123;BMP280;57489;37.404;24.920;2023-05-01T13:58:21;100475.59;;;22.76
70123;BMP280;57489;37.404;24.920;2023-05-01T14:03:22;100473.59;;;22.85
70123;BMP280;57489;37.404;24.920;2023-05-01T14:08:27;100474.50;;;22.90
70123;BMP280;57489;37.404;24.920;2023-05-01T14:13:27;100476.72;;;22.75
70123;BMP280;57489;37.404;24.920;2023-05-01T14:18:28;100489.06;;;23.13
70123;BMP280;57489;37.404;24.920;2023-05-01T14:23:30;100492.13;;;23.15
70123;BMP280;57489;37.404;24.920;2023-05-01T14:28:30;100489.59;;;23.31
70123;BMP280;57489;37.404;24.920;2023-05-01T14:33:31;100491.72;;;23.25
70123;BMP280;57489;37.404;24.920;2023-05-01T14:38:31;100480.56;;;23.35
70123;BMP280;57489;37.404;24.920;2023-05-01T14:43:32;100489.81;;;23.38
70123;BMP280;57489;37.404;24.920;2023-05-01T14:48:35;100487.13;;;23.01
70123;BMP280;57489;37.404;24.920;2023-05-01T14:53:39;100495.19;;;22.68
70123;BMP280;57489;37.404;24.920;2023-05-01T14:58:40;100495.47;;;22.54
70123;BMP280;57489;37.404;24.920;2023-05-01T15:03:40;100484.00;;;22.54
70123;BMP280;57489;37.404;24.920;2023-05-01T15:08:41;100492.50;;;22.56
70123;BMP280;57489;37.404;24.920;2023-05-01T15:13:41;100485.59;;;22.55
70123;BMP280;57489;37.404;24.920;2023-05-01T15:18:41;100487.16;;;22.56
70123;BMP280;57489;37.404;24.920;2023-05-01T15:23:42;100482.44;;;22.53
70123;BMP280;57489;37.404;24.920;2023-05-01T15:28:42;100478.22;;;22.52
70123;BMP280;57489;37.404;24.920;2023-05-01T15:33:43;100480.09;;;22.51
70123;BMP280;57489;37.404;24.920;2023-05-01T15:38:43;100480.00;;;22.48
70123;BMP280;57489;37.404;24.920;2023-05-01T15:43:44;100482.06;;;22.75
70123;BMP280;57489;37.404;24.920;2023-05-01T15:48:44;100488.09;;;22.84
70123;BMP280;57489;37.404;24.920;2023-05-01T15:53:45;100487.00;;;22.98
70123;BMP280;57489;37.404;24.920;2023-05-01T15:58:45;100480.31;;;23.04
70123;BMP280;57489;37.404;24.920;2023-05-01T16:03:47;100491.13;;;23.07
70123;BMP280;57489;37.404;24.920;2023-05-01T16:08:47;100479.88;;;23.14
70123;BMP280;57489;37.404;24.920;2023-05-01T16:13:48;100489.22;;;22.96
70123;BMP280;57489;37.404;24.920;2023-05-01T16:18:53;100483.88;;;22.50
70123;BMP280;57489;37.404;24.920;2023-05-01T16:23:54;100490.16;;;22.34
70123;BMP280;57489;37.404;24.920;2023-05-01T16:28:58;100501.75;;;22.25
70123;BMP280;57489;37.404;24.920;2023-05-01T16:33:59;100502.47;;;22.14
70123;BMP280;57489;37.404;24.920;2023-05-01T16:38:59;100503.34;;;22.18
70123;BMP280;57489;37.404;24.920;2023-05-01T16:43:59;100505.19;;;22.05
70123;BMP280;57489;37.404;24.920;2023-05-01T16:49:00;100502.09;;;21.94
70123;BMP280;57489;37.404;24.920;2023-05-01T16:54:00;100504.63;;;21.91
70123;BMP280;57489;37.404;24.920;2023-05-01T16:59:01;100505.28;;;21.88
70123;BMP280;57489;37.404;24.920;2023-05-01T17:04:01;100494.22;;;22.19
70123;BMP280;57489;37.404;24.920;2023-05-01T17:09:02;100500.41;;;22.31
70123;BMP280;57489;37.404;24.920;2023-05-01T17:14:02;100500.88;;;22.34
70123;BMP280;57489;37.404;24.920;2023-05-01T17:19:03;100506.88;;;22.30
70123;BMP280;57489;37.404;24.920;2023-05-01T17:24:03;100505.31;;;22.29
70123;BMP280;57489;37.404;24.920;2023-05-01T17:29:04;100513.59;;;22.37
70123;BMP280;57489;37.404;24.920;2023-05-01T17:34:04;100517.19;;;22.41
70123;BMP280;57489;37.404;24.920;2023-05-01T17:39:05;100515.22;;;22.08
70123;BMP280;57489;37.404;24.920;2023-05-01T17:44:05;100525.44;;;21.85
70123;BMP280;57489;37.404;24.920;2023-05-01T17:49:06;100535.38;;;21.76
70123;BMP280;57489;37.404;24.920;2023-05-01T17:54:06;100535.72;;;21.74
70123;BMP280;57489;37.404;24.920;2023-05-01T17:59:06;100543.44;;;21.67
70123;BMP280;57489;37.404;24.920;2023-05-01T18:04:07;100547.56;;;21.65
70123;BMP280;57489;37.404;24.920;2023-05-01T18:09:07;100548.63;;;21.64
70123;BMP280;57489;37.404;24.920;2023-05-01T18:14:08;100556.03;;;21.58
70123;BMP280;57489;37.404;24.920;2023-05-01T18:19:08;100559.94;;;21.69
70123;BMP280;57489;37.404;24.920;2023-05-01T18:24:09;100559.47;;;21.67
70123;BMP280;57489;37.404;24.920;2023-05-01T18:29:09;100565.09;;;21.74
70123;BMP280;57489;37.404;24.920;2023-05-01T18:34:09;100568.75;;;21.70
70123;BMP280;57489;37.404;24.920;2023-05-01T18:39:10;100568.56;;;22.04
70123;BMP280;57489;37.404;24.920;2023-05-01T18:44:10;100581.06;;;22.13
70123;BMP280;57489;37.404;24.920;2023-05-01T18:49:11;100576.66;;;22.17
70123;BMP280;57489;37.404;24.920;2023-05-01T18:54:11;100577.69;;;22.24
70123;BMP280;57489;37.404;24.920;2023-05-01T18:59:12;100584.41;;;22.30
70123;BMP280;57489;37.404;24.920;2023-05-01T19:04:12;100583.41;;;22.14
70123;BMP280;57489;37.404;24.920;2023-05-01T19:09:13;100581.84;;;22.13
70123;BMP280;57489;37.404;24.920;2023-05-01T19:14:13;100581.59;;;22.06
70123;BMP280;57489;37.404;24.920;2023-05-01T19:19:14;100583.63;;;22.09
70123;BMP280;57489;37.404;24.920;2023-05-01T19:24:14;100588.97;;;22.09
70123;BMP280;57489;37.404;24.920;2023-05-01T19:29:14;100586.75;;;22.11
70123;BMP280;57489;37.404;24.920;2023-05-01T19:34:15;100592.88;;;22.33
70123;BMP280;57489;37.404;24.920;2023-05-01T19:39:15;100595.03;;;22.18
70123;BMP280;57489;37.404;24.920;2023-05-01T19:44:16;100588.94;;;22.30
70123;BMP280;57489;37.404;24.920;2023-05-01T19:49:17;100593.47;;;22.17
70123;BMP280;57489;37.404;24.920;2023-05-01T19:54:17;100595.44;;;22.29
70123;BMP280;57489;37.404;24.920;2023-05-01T19:59:18;100593.25;;;22.22
70123;BMP280;57489;37.404;24.920;2023-05-01T20:04:18;100598.81;;;22.38
70123;BMP280;57489;37.404;24.920;2023-05-01T20:09:19;100595.03;;;22.39
70123;BMP280;57489;37.404;24.920;2023-05-01T20:14:20;100586.91;;;22.36
70123;BMP280;57489;37.404;24.920;2023-05-01T20:19:20;100594.25;;;22.39
70123;BMP280;57489;37.404;24.920;2023-05-01T20:24:21;100588.47;;;22.37
70123;BMP280;57489;37.404;24.920;2023-05-01T20:29:21;100600.13;;;22.32
70123;BMP280;57489;37.404;24.920;2023-05-01T20:34:22;100604.81;;;22.35
70123;BMP280;57489;37.404;24.920;2023-05-01T20:39:23;100596.06;;;22.47
70123;BMP280;57489;37.404;24.920;2023-05-01T20:44:23;100596.22;;;22.29
70123;BMP280;57489;37.404;24.920;2023-05-01T20:49:24;100598.03;;;22.17
70123;BMP280;57489;37.404;24.920;2023-05-01T20:54:24;100610.63;;;22.37
70123;BMP280;57489;37.404;24.920;2023-05-01T20:59:25;100609.13;;;22.27
70123;BMP280;57489;37.404;24.920;2023-05-01T21:04:25;100606.06;;;22.38
70123;BMP280;57489;37.404;24.920;2023-05-01T21:09:25;100598.69;;;22.35
70123;BMP280;57489;37.404;24.920;2023-05-01T21:14:26;100601.94;;;22.19
70123;BMP280;57489;37.404;24.920;2023-05-01T21:19:27;100606.63;;;22.22
70123;BMP280;57489;37.404;24.920;2023-05-01T21:24:27;100606.03;;;22.25
70123;BMP280;57489;37.404;24.920;2023-05-01T21:29:28;100608.22;;;22.23
70123;BMP280;57489;37.404;24.920;2023-05-01T21:34:28;100617.06;;;22.15
70123;BMP280;57489;37.404;24.920;2023-05-01T21:39:29;100618.28;;;22.18
70123;BMP280;57489;37.404;24.920;2023-05-01T21:44:30;100621.13;;;22.21
70123;BMP280;57489;37.404;24.920;2023-05-01T21:49:30;100624.88;;;22.20
70123;BMP280;57489;37.404;24.920;2023-05-01T21:54:31;100612.09;;;22.05
70123;BMP280;57489;37.404;24.920;2023-05-01T21:59:34;100612.25;;;22.09
70123;BMP280;57489;37.404;24.920;2023-05-01T22:04:35;100610.91;;;22.15
70123;BMP280;57489;37.404;24.920;2023-05-01T22:09:36;100607.28;;;22.19
70123;BMP280;57489;37.404;24.920;2023-05-01T22:14:37;100606.09;;;22.08
70123;BMP280;57489;37.404;24.920;2023-05-01T22:19:37;100592.91;;;22.03
70123;BMP280;57489;37.404;24.920;2023-05-01T22:24:38;100593.38;;;22.05
70123;BMP280;57489;37.404;24.920;2023-05-01T22:29:38;100593.38;;;22.05
70123;BMP280;57489;37.404;24.920;2023-05-01T22:34:38;100589.78;;;22.01
70123;BMP280;57489;37.404;24.920;2023-05-01T22:39:39;100573.91;;;21.66
70123;BMP280;57489;37.404;24.920;2023-05-01T22:44:41;100569.44;;;21.49
70123;BMP280;57489;37.404;24.920;2023-05-01T22:49:41;100570.41;;;21.45
70123;BMP280;57489;37.404;24.920;2023-05-01T22:54:42;100564.31;;;21.36
70123;BMP280;57489;37.404;24.920;2023-05-01T22:59:42;100559.59;;;21.33
70123;BMP280;57489;37.404;24.920;2023-05-01T23:04:43;100553.63;;;21.36
70123;BMP280;57489;37.404;24.920;2023-05-01T23:09:43;100546.88;;;21.30
70123;BMP280;57489;37.404;24.920;2023-05-01T23:14:44;100553.19;;;21.25
70123;BMP280;57489;37.404;24.920;2023-05-01T23:19:45;100549.25;;;21.22
70123;BMP280;57489;37.404;24.920;2023-05-01T23:24:47;100545.81;;;21.13
70123;BMP280;57489;37.404;24.920;2023-05-01T23:29:53;100543.16;;;21.13
70123;BMP280;57489;37.404;24.920;2023-05-01T23:34:54;100537.22;;;21.08
70123;BMP280;57489;37.404;24.920;2023-05-01T23:39:55;100538.00;;;21.08
70123;BMP280;57489;37.404;24.920;2023-05-01T23:44:55;100545.38;;;21.03
70123;BMP280;57489;37.404;24.920;2023-05-01T23:49:56;100543.78;;;21.02
70123;BMP280;57489;37.404;24.920;2023-05-01T23:54:56;100542.09;;;20.97
70123;BMP280;57489;37.404;24.920;2023-05-01T23:59:57;100539.63;;;20.92
